Time;durP1;ratioP1;P1;durP2;ratioP2;P2;SDS_P1;SDS_P2;PMS_P1;PMS_P2;Temp;Humidity;BMP_temperature;BMP_pressure;BME280_temperature;BME280_humidity;BME280_pressure;Samples;Min_cycle;Max_cycle;Signal;HPM_P1;HPM_P2
2022/09/01 00:02:31;;;;;;;;;;;;;;;21.62;57.11;99895.41;4409362;32;32558;-88
2022/09/01 00:04:59;;;;;;;;;;;;;;;21.64;57.87;99902.34;4420557;32;33996;-89
2022/09/01 00:07:30;;;;;;;;;;;;;;;21.65;58.19;99909.44;4419774;32;34088;-89
2022/09/01 00:09:58;;;;;;;;;;;;;;;21.55;58.53;99911.19;4408944;32;32077;-88
2022/09/01 00:12:26;;;;;;;;;;;;;;;21.46;58.51;99915.56;4419156;32;34014;-88
2022/09/01 00:14:53;;;;;;;;;;;;;;;21.46;59.25;99922.78;4408004;32;34473;-88
2022/09/01 00:17:21;;;;;;;;;;;;;;;21.38;60.42;99934.19;4419683;32;34126;-88
2022/09/01 00:19:48;;;;;;;;;;;;;;;21.52;60.50;99927.59;4420869;32;32860;-88
2022/09/01 00:22:16;;;;;;;;;;;;;;;21.76;59.27;99926.44;4381792;32;795982;-89
2022/09/01 00:24:44;;;;;;;;;;;;;;;21.71;59.49;99922.31;4421457;32;35056;-88
2022/09/01 00:27:12;;;;;;;;;;;;;;;21.47;60.85;99930.69;4408354;32;33190;-88
2022/09/01 00:29:39;;;;;;;;;;;;;;;21.50;59.33;99923.34;4421173;32;33064;-88
2022/09/01 00:32:10;;;;;;;;;;;;;;;21.21;61.48;99930.22;4420212;32;33441;-88
2022/09/01 00:34:38;;;;;;;;;;;;;;;21.48;59.47;99931.53;4406543;32;34311;-89
2022/09/01 00:37:12;;;;;;;;;;;;;;;21.35;60.19;99941.63;4407209;32;34134;-88
2022/09/01 00:39:40;;;;;;;;;;;;;;;21.28;60.65;99940.44;4409668;32;32319;-91
2022/09/01 00:42:12;;;;;;;;;;;;;;;21.43;59.84;99939.16;4408360;32;32360;-91
2022/09/01 00:44:40;;;;;;;;;;;;;;;21.19;60.87;99929.50;4409401;32;33146;-90
2022/09/01 00:47:08;;;;;;;;;;;;;;;21.03;62.16;99925.56;4408808;32;33250;-91
2022/09/01 00:49:51;;;;;;;;;;;;;;;20.89;63.03;99924.09;4413372;32;32189;-92
2022/09/01 00:52:34;;;;;;;;;;;;;;;20.84;62.98;99937.00;4406586;32;32744;-90
2022/09/01 00:55:17;;;;;;;;;;;;;;;20.88;63.29;99938.47;4405443;32;32979;-90
2022/09/01 00:57:45;;;;;;;;;;;;;;;21.01;61.62;99949.03;4419318;32;33114;-91
2022/09/01 01:00:19;;;;;;;;;;;;;;;20.66;61.73;99940.28;4406109;32;31875;-90
2022/09/01 01:02:57;;;;;;;;;;;;;;;20.47;62.86;99940.09;4393226;32;32872;-91
2022/09/01 01:05:52;;;;;;;;;;;;;;;20.54;63.64;99949.34;4393515;32;33059;-91
2022/09/01 01:08:26;;;;;;;;;;;;;;;20.61;62.04;99947.84;4405866;32;32786;-90
2022/09/01 01:10:54;;;;;;;;;;;;;;;20.14;61.94;99949.91;4405083;32;32712;-89
2022/09/01 01:13:24;;;;;;;;;;;;;;;20.06;62.54;99951.47;4393228;32;33489;-88
2022/09/01 01:15:52;;;;;;;;;;;;;;;20.15;62.67;99942.69;4406842;32;34594;-89
2022/09/01 01:18:19;;;;;;;;;;;;;;;20.44;62.10;99934.94;4408038;32;33272;-89
2022/09/01 01:23:55;;;;;;;;;;;;;;;20.25;63.51;99940.13;4406564;32;32699;-88
2022/09/01 01:26:22;;;;;;;;;;;;;;;20.04;64.36;99943.56;4395397;32;33123;-88
2022/09/01 01:28:53;;;;;;;;;;;;;;;19.99;64.19;99944.91;4405888;32;34426;-88
2022/09/01 01:31:22;;;;;;;;;;;;;;;19.95;64.67;99949.69;4395195;32;32135;-89
2022/09/01 01:33:51;;;;;;;;;;;;;;;20.07;64.15;99945.13;4407446;32;34153;-88
2022/09/01 01:36:20;;;;;;;;;;;;;;;20.18;63.51;99945.13;4396751;32;32885;-88
2022/09/01 01:38:49;;;;;;;;;;;;;;;19.99;64.52;99940.41;4394911;32;34297;-89
2022/09/01 01:41:18;;;;;;;;;;;;;;;20.12;63.64;99946.47;4395025;32;33205;-89
2022/09/01 01:43:47;;;;;;;;;;;;;;;20.14;63.09;99944.53;4420449;32;33027;-89
2022/09/01 01:46:16;;;;;;;;;;;;;;;20.19;62.92;99947.69;4408575;32;34022;-89
2022/09/01 01:48:45;;;;;;;;;;;;;;;19.86;64.20;99937.84;4383914;32;33073;-90
2022/09/01 01:51:14;;;;;;;;;;;;;;;19.97;64.24;99931.63;4405248;32;32384;-89
2022/09/01 01:53:42;;;;;;;;;;;;;;;20.51;61.12;99924.59;4404775;32;33380;-88
2022/09/01 01:56:10;;;;;;;;;;;;;;;19.92;63.48;99923.97;4404261;32;33188;-87
2022/09/01 01:58:39;;;;;;;;;;;;;;;20.15;62.29;99914.06;4404571;32;33698;-88
2022/09/01 02:01:10;;;;;;;;;;;;;;;20.14;61.29;99904.31;4404643;32;32566;-88
2022/09/01 02:03:38;;;;;;;;;;;;;;;19.87;62.92;99910.09;4390877;32;33583;-88
2022/09/01 02:06:07;;;;;;;;;;;;;;;19.41;65.60;99908.34;4393115;32;33579;-88
2022/09/01 02:08:35;;;;;;;;;;;;;;;19.67;65.04;99913.50;4405200;32;32638;-88
2022/09/01 02:11:04;;;;;;;;;;;;;;;19.57;65.11;99913.38;4417058;32;32097;-88
2022/09/01 02:13:32;;;;;;;;;;;;;;;19.65;64.81;99905.62;4391638;32;32658;-87
2022/09/01 02:16:03;;;;;;;;;;;;;;;19.67;64.99;99909.00;4404002;32;34841;-87
2022/09/01 02:18:35;;;;;;;;;;;;;;;19.65;64.75;99902.94;4404017;32;32296;-87
2022/09/01 02:21:09;;;;;;;;;;;;;;;19.56;65.46;99909.00;4403541;32;34272;-87
2022/09/01 02:23:42;;;;;;;;;;;;;;;19.54;65.70;99910.06;4403407;32;32677;-87
2022/09/01 02:26:10;;;;;;;;;;;;;;;19.62;65.66;99913.88;4416045;32;35003;-88
2022/09/01 02:28:44;;;;;;;;;;;;;;;19.69;65.70;99909.72;4403394;32;33069;-88
2022/09/01 02:31:19;;;;;;;;;;;;;;;19.70;65.73;99913.25;4404340;32;32891;-89
2022/09/01 02:33:47;;;;;;;;;;;;;;;19.93;64.94;99908.72;4390721;32;32674;-89
2022/09/01 02:36:16;;;;;;;;;;;;;;;20.06;64.23;99908.59;4373631;32;32867;-90
2022/09/01 02:38:47;;;;;;;;;;;;;;;20.16;63.35;99894.31;4379645;32;33627;-90
2022/09/01 02:41:22;;;;;;;;;;;;;;;19.85;64.83;99895.97;4379690;32;32075;-90
2022/09/01 02:43:50;;;;;;;;;;;;;;;19.78;65.50;99884.03;4392912;32;33455;-90
2022/09/01 02:46:22;;;;;;;;;;;;;;;20.11;62.98;99891.16;4392233;32;34050;-89
2022/09/01 02:48:51;;;;;;;;;;;;;;;19.65;65.42;99897.56;4379180;32;34328;-90
2022/09/01 02:51:22;;;;;;;;;;;;;;;19.65;64.93;99900.25;4391451;32;32975;-90
2022/09/01 02:53:51;;;;;;;;;;;;;;;19.79;64.67;99895.59;4379285;32;33420;-89
2022/09/01 02:56:21;;;;;;;;;;;;;;;19.52;65.44;99887.94;4392011;32;34339;-89
2022/09/01 02:58:52;;;;;;;;;;;;;;;19.54;65.09;99886.81;4379177;32;34252;-90
2022/09/01 03:01:27;;;;;;;;;;;;;;;19.18;65.42;99888.75;4379269;32;33679;-90
2022/09/01 03:03:57;;;;;;;;;;;;;;;19.66;63.96;99877.84;4379503;32;32754;-90
2022/09/01 03:06:25;;;;;;;;;;;;;;;19.77;63.72;99886.84;4416336;32;34261;-89
2022/09/01 03:08:54;;;;;;;;;;;;;;;19.72;64.30;99878.31;4391453;32;33365;-89
2022/09/01 03:11:22;;;;;;;;;;;;;;;19.52;64.65;99871.84;4391595;32;32630;-89
2022/09/01 03:13:50;;;;;;;;;;;;;;;19.61;63.04;99872.00;4403385;32;33943;-89
2022/09/01 03:16:18;;;;;;;;;;;;;;;19.64;63.54;99876.25;4391578;32;33550;-89
2022/09/01 03:18:45;;;;;;;;;;;;;;;19.06;66.49;99888.84;4391936;32;32916;-89
2022/09/01 03:21:14;;;;;;;;;;;;;;;18.96;67.51;99886.03;4404325;32;32793;-89
2022/09/01 03:23:43;;;;;;;;;;;;;;;19.32;65.71;99902.84;4404556;32;33851;-89
2022/09/01 03:26:12;;;;;;;;;;;;;;;19.17;65.06;99908.44;4391889;32;33042;-88
2022/09/01 03:28:40;;;;;;;;;;;;;;;19.28;65.44;99906.78;4391690;32;32945;-89
2022/09/01 03:31:08;;;;;;;;;;;;;;;19.50;64.14;99906.78;4391435;32;32171;-89
2022/09/01 03:33:35;;;;;;;;;;;;;;;19.65;63.28;99910.97;4391497;32;33391;-88
2022/09/01 03:36:06;;;;;;;;;;;;;;;19.66;63.04;99895.75;4403910;32;34179;-88
2022/09/01 03:38:42;;;;;;;;;;;;;;;19.75;62.52;99897.69;4391497;32;34146;-89
2022/09/01 03:41:11;;;;;;;;;;;;;;;19.68;62.93;99893.78;4400551;32;33992;-90
2022/09/01 03:43:47;;;;;;;;;;;;;;;19.52;62.93;99890.59;4403631;32;33269;-90
2022/09/01 03:46:23;;;;;;;;;;;;;;;19.33;62.53;99877.81;4391572;32;33203;-91
2022/09/01 03:48:51;;;;;;;;;;;;;;;19.08;63.31;99879.72;4416432;32;33451;-91
2022/09/01 03:51:21;;;;;;;;;;;;;;;18.82;64.47;99883.56;4391251;32;32110;-90
2022/09/01 03:53:53;;;;;;;;;;;;;;;18.60;66.26;99882.47;4391270;32;33400;-89
2022/09/01 03:56:22;;;;;;;;;;;;;;;18.72;65.95;99885.25;4379142;32;33000;-90
2022/09/01 03:58:50;;;;;;;;;;;;;;;18.97;63.66;99877.03;4391191;32;33746;-90
2022/09/01 04:01:18;;;;;;;;;;;;;;;18.77;64.71;99877.72;4378745;32;32319;-90
2022/09/01 04:03:47;;;;;;;;;;;;;;;18.84;65.16;99873.59;4404072;32;34575;-90
2022/09/01 04:06:18;;;;;;;;;;;;;;;18.88;65.25;99867.88;4378991;32;33347;-90
2022/09/01 04:08:46;;;;;;;;;;;;;;;18.62;66.75;99877.88;4379047;32;33505;-90
2022/09/01 04:11:17;;;;;;;;;;;;;;;18.64;67.07;99875.94;4403576;32;33180;-89
2022/09/01 04:13:46;;;;;;;;;;;;;;;19.03;65.39;99878.37;4379464;32;32584;-89
2022/09/01 04:18:08;;;;;;;;;;;;;;;18.78;66.59;99876.75;4391038;32;33524;-89
2022/09/01 04:19:14;;;;;;;;;;;;;;;18.85;66.65;99875.31;4378763;32;33300;-88
2022/09/01 04:21:43;;;;;;;;;;;;;;;18.87;66.95;99870.69;4403318;32;32352;-90
2022/09/01 04:24:15;;;;;;;;;;;;;;;19.04;66.37;99870.25;4378628;32;33126;-90
2022/09/01 04:30:32;;;;;;;;;;;;;;;18.64;67.81;99859.88;4359494;32;32996;-89
2022/09/01 04:33:00;;;;;;;;;;;;;;;18.91;66.83;99878.34;4392151;32;33413;-90
2022/09/01 04:35:31;;;;;;;;;;;;;;;19.09;66.06;99881.44;4394371;32;34606;-90
2022/09/01 04:38:07;;;;;;;;;;;;;;;19.21;65.40;99879.63;4379491;32;33491;-91
2022/09/01 04:40:38;;;;;;;;;;;;;;;19.01;66.50;99889.19;4391558;32;32937;-91
2022/09/01 04:43:07;;;;;;;;;;;;;;;18.87;67.11;99887.59;4367396;32;33443;-91
2022/09/01 04:45:35;;;;;;;;;;;;;;;19.10;66.35;99877.78;4378911;32;33101;-91
2022/09/01 04:48:27;;;;;;;;;;;;;;;19.44;64.38;99875.97;4402563;32;34817;-92
2022/09/01 04:51:16;;;;;;;;;;;;;;;19.32;64.68;99881.44;4403134;32;32869;-92
2022/09/01 04:53:49;;;;;;;;;;;;;;;19.09;65.66;99884.13;4420703;32;33459;-92
2022/09/01 04:56:21;;;;;;;;;;;;;;;18.99;66.05;99885.81;4407865;32;32843;-91
2022/09/01 04:58:50;;;;;;;;;;;;;;;19.09;65.64;99886.78;4407983;32;34958;-91
2022/09/01 05:01:19;;;;;;;;;;;;;;;18.90;66.55;99886.50;4421179;32;33853;-90
2022/09/01 05:03:55;;;;;;;;;;;;;;;19.10;65.98;99893.00;4409057;32;33878;-90
2022/09/01 05:06:25;;;;;;;;;;;;;;;19.10;65.64;99888.50;4406770;32;32481;-90
2022/09/01 05:08:56;;;;;;;;;;;;;;;19.02;66.46;99901.59;4418861;32;33208;-90
2022/09/01 05:11:26;;;;;;;;;;;;;;;18.98;66.89;99901.97;4395287;32;34797;-90
2022/09/01 05:13:56;;;;;;;;;;;;;;;19.10;66.72;99909.06;4392875;32;32753;-90
2022/09/01 05:16:24;;;;;;;;;;;;;;;19.09;66.45;99908.19;4395881;32;33250;-91
2022/09/01 05:18:53;;;;;;;;;;;;;;;19.23;65.74;99911.59;4416036;32;31574;-90
2022/09/01 05:21:23;;;;;;;;;;;;;;;19.39;64.87;99893.38;4404794;32;34445;-91
2022/09/01 05:23:53;;;;;;;;;;;;;;;19.58;63.63;99899.00;4400728;32;32295;-91
2022/09/01 05:26:22;;;;;;;;;;;;;;;19.38;64.56;99897.03;4408111;32;33850;-90
2022/09/01 05:28:52;;;;;;;;;;;;;;;19.30;64.56;99899.47;4398146;32;34294;-88
2022/09/01 05:31:21;;;;;;;;;;;;;;;19.24;65.10;99899.94;4405764;32;33940;-90
2022/09/01 05:33:49;;;;;;;;;;;;;;;19.18;65.42;99903.97;4379853;32;33319;-90
2022/09/01 05:36:18;;;;;;;;;;;;;;;19.01;66.43;99905.25;4389746;32;32859;-90
2022/09/01 05:38:47;;;;;;;;;;;;;;;19.01;66.31;99905.25;4407133;32;33263;-89
2022/09/01 05:41:15;;;;;;;;;;;;;;;19.32;64.78;99902.84;4381094;32;34487;-90
2022/09/01 05:43:47;;;;;;;;;;;;;;;19.42;63.84;99901.19;4404398;32;33357;-91
2022/09/01 05:46:17;;;;;;;;;;;;;;;19.08;65.82;99906.47;4393864;32;33347;-90
2022/09/01 05:48:48;;;;;;;;;;;;;;;19.16;65.56;99904.06;4404065;32;32967;-89
2022/09/01 05:51:21;;;;;;;;;;;;;;;18.88;66.84;99912.50;4406168;32;33969;-91
2022/09/01 05:54:13;;;;;;;;;;;;;;;18.95;66.90;99911.09;4406852;32;32792;-91
2022/09/01 05:56:42;;;;;;;;;;;;;;;19.26;65.25;99908.69;4417523;32;32714;-91
2022/09/01 05:59:12;;;;;;;;;;;;;;;19.43;64.57;99910.91;4416612;32;34944;-92
2022/09/01 06:02:12;;;;;;;;;;;;;;;19.50;64.17;99904.09;4400888;32;33480;-91
2022/09/01 06:05:16;;;;;;;;;;;;;;;19.49;63.77;99905.06;4399132;32;31684;-91
2022/09/01 06:07:45;;;;;;;;;;;;;;;19.38;63.71;99902.41;4393192;32;32811;-91
2022/09/01 06:10:19;;;;;;;;;;;;;;;19.25;64.91;99897.16;4388667;32;33068;-89
2022/09/01 06:12:50;;;;;;;;;;;;;;;19.28;64.60;99901.44;4400063;32;32536;-90
2022/09/01 06:15:21;;;;;;;;;;;;;;;19.24;64.09;99907.97;4393854;32;32462;-90
2022/09/01 06:17:49;;;;;;;;;;;;;;;19.09;65.09;99912.72;4376050;32;33805;-90
2022/09/01 06:20:17;;;;;;;;;;;;;;;18.98;65.20;99905.47;4378788;32;32961;-90
2022/09/01 06:22:46;;;;;;;;;;;;;;;18.73;66.32;99919.03;4396379;32;33198;-90
2022/09/01 06:25:17;;;;;;;;;;;;;;;18.77;66.59;99912.50;4380807;32;32721;-90
2022/09/01 06:27:47;;;;;;;;;;;;;;;18.93;66.17;99911.19;4389309;32;33370;-90
2022/09/01 06:30:16;;;;;;;;;;;;;;;18.89;66.11;99914.22;4391232;32;33536;-90
2022/09/01 06:32:53;;;;;;;;;;;;;;;18.89;66.84;99916.87;4389903;32;34646;-90
2022/09/01 06:35:28;;;;;;;;;;;;;;;18.94;66.59;99914.72;4398996;32;34136;-89
2022/09/01 06:37:57;;;;;;;;;;;;;;;18.88;66.85;99925.87;4400887;32;34416;-90
2022/09/01 06:40:26;;;;;;;;;;;;;;;19.07;66.35;99926.19;4386680;32;33327;-90
2022/09/01 06:42:54;;;;;;;;;;;;;;;19.03;66.33;99923.84;4383699;32;34570;-90
2022/09/01 06:45:22;;;;;;;;;;;;;;;19.26;64.55;99924.75;4374474;32;31879;-90
2022/09/01 06:47:51;;;;;;;;;;;;;;;19.09;64.91;99923.41;4390911;32;33489;-90
2022/09/01 06:50:27;;;;;;;;;;;;;;;19.34;64.18;99927.72;4397817;32;35053;-90
2022/09/01 06:53:17;;;;;;;;;;;;;;;19.10;65.76;99931.31;4380774;32;34352;-90
2022/09/01 06:56:01;;;;;;;;;;;;;;;19.00;65.66;99927.63;4377937;32;32496;-90
2022/09/01 06:58:30;;;;;;;;;;;;;;;19.04;66.64;99930.94;4391192;32;33949;-90
2022/09/01 07:00:57;;;;;;;;;;;;;;;19.22;65.71;99931.31;4375295;32;33955;-90
2022/09/01 07:03:25;;;;;;;;;;;;;;;19.29;65.13;99935.25;4367409;32;33135;-90
2022/09/01 07:05:54;;;;;;;;;;;;;;;19.56;64.30;99941.13;4379588;32;31867;-90
2022/09/01 07:08:38;;;;;;;;;;;;;;;19.68;63.86;99942.84;4395083;32;34033;-90
2022/09/01 07:11:27;;;;;;;;;;;;;;;19.74;63.39;99952.22;4374953;32;33464;-90
2022/09/01 07:14:15;;;;;;;;;;;;;;;19.48;64.48;99950.72;4380983;32;32707;-91
2022/09/01 07:16:45;;;;;;;;;;;;;;;19.76;63.90;99947.63;4392700;32;32666;-90
2022/09/01 07:19:20;;;;;;;;;;;;;;;19.84;63.05;99947.84;4390445;32;33159;-90
2022/09/01 07:21:48;;;;;;;;;;;;;;;19.86;62.72;99953.09;4408081;32;34271;-91
2022/09/01 07:24:36;;;;;;;;;;;;;;;19.59;64.32;99948.91;4384042;32;33150;-91
2022/09/01 07:27:08;;;;;;;;;;;;;;;19.49;64.84;99957.78;4395386;32;32887;-90
2022/09/01 07:29:38;;;;;;;;;;;;;;;19.81;63.80;99955.28;4395785;32;34211;-90
2022/09/01 07:32:09;;;;;;;;;;;;;;;19.82;63.35;99955.16;4382876;32;33484;-90
2022/09/01 07:34:57;;;;;;;;;;;;;;;19.68;64.94;99961.59;4383799;32;34024;-90
2022/09/01 07:37:26;;;;;;;;;;;;;;;19.78;65.32;99953.69;4382833;32;32106;-90
2022/09/01 07:40:17;;;;;;;;;;;;;;;19.76;65.47;99969.03;4385439;32;33008;-90
2022/09/01 07:43:07;;;;;;;;;;;;;;;20.02;63.87;99961.59;4388894;32;33771;-90
2022/09/01 07:45:47;;;;;;;;;;;;;;;19.81;64.75;99952.59;4382212;32;33543;-90
2022/09/01 07:48:26;;;;;;;;;;;;;;;19.89;65.49;99958.19;4382041;32;32132;-90
2022/09/01 07:51:18;;;;;;;;;;;;;;;20.25;62.10;99940.13;4397259;32;33872;-90
2022/09/01 07:54:03;;;;;;;;;;;;;;;19.96;63.64;99951.38;4375669;32;33216;-90
2022/09/01 07:56:31;;;;;;;;;;;;;;;19.92;63.00;99950.75;4404747;32;32762;-90
2022/09/01 07:59:06;;;;;;;;;;;;;;;20.02;62.90;99958.91;4376029;32;31848;-90
2022/09/01 08:01:35;;;;;;;;;;;;;;;20.08;60.26;99952.19;4394825;32;33720;-90
2022/09/01 08:04:04;;;;;;;;;;;;;;;20.11;59.15;99950.13;4369357;32;32669;-90
2022/09/01 08:06:31;;;;;;;;;;;;;;;19.91;59.15;99950.88;4382209;32;34172;-90
2022/09/01 08:09:09;;;;;;;;;;;;;;;19.68;61.81;99947.34;4395028;32;33353;-90
2022/09/01 08:11:53;;;;;;;;;;;;;;;19.54;64.46;99950.25;4383934;32;33321;-91
2022/09/01 08:14:30;;;;;;;;;;;;;;;19.68;64.49;99948.22;4396506;32;34110;-89
2022/09/01 08:17:00;;;;;;;;;;;;;;;19.66;64.09;99955.53;4377445;32;33766;-90
2022/09/01 08:19:45;;;;;;;;;;;;;;;19.80;63.52;99957.13;4382471;32;32636;-90
2022/09/01 08:22:15;;;;;;;;;;;;;;;20.04;63.81;99951.62;4382459;32;34302;-91
2022/09/01 08:24:42;;;;;;;;;;;;;;;20.05;63.66;99950.63;4367242;32;33570;-90
2022/09/01 08:27:10;;;;;;;;;;;;;;;20.08;63.92;99955.75;4381473;32;33038;-90
2022/09/01 08:29:38;;;;;;;;;;;;;;;20.03;63.21;99957.06;4393612;32;32063;-90
2022/09/01 08:32:05;;;;;;;;;;;;;;;20.41;62.58;99957.53;4377290;32;32487;-90
2022/09/01 08:34:33;;;;;;;;;;;;;;;20.30;63.20;99964.72;4387836;32;33262;-90
2022/09/01 08:37:00;;;;;;;;;;;;;;;20.61;62.42;99963.94;4393757;32;34169;-90
2022/09/01 08:39:28;;;;;;;;;;;;;;;20.27;64.03;99964.97;4382015;32;31782;-90
2022/09/01 08:42:08;;;;;;;;;;;;;;;20.20;63.68;99969.97;4381991;32;32940;-90
2022/09/01 08:44:39;;;;;;;;;;;;;;;20.48;62.04;99967.78;4386306;32;33480;-90
2022/09/01 08:47:09;;;;;;;;;;;;;;;20.28;63.11;99972.06;4390595;32;34110;-90
2022/09/01 08:49:45;;;;;;;;;;;;;;;20.39;61.66;99977.38;4386001;32;32511;-90
2022/09/01 08:52:22;;;;;;;;;;;;;;;20.71;57.73;99974.78;4380723;32;32808;-90
2022/09/01 08:55:10;;;;;;;;;;;;;;;20.62;58.72;99965.66;4392959;32;34604;-91
2022/09/01 08:57:39;;;;;;;;;;;;;;;20.48;59.91;99970.47;4406628;32;34791;-90
2022/09/01 09:00:10;;;;;;;;;;;;;;;20.54;58.99;99962.75;4394644;32;32543;-90
2022/09/01 09:02:51;;;;;;;;;;;;;;;20.58;58.70;99964.19;4394352;32;32966;-90
2022/09/01 09:05:19;;;;;;;;;;;;;;;20.55;58.90;99968.97;4391397;32;33712;-90
2022/09/01 09:07:52;;;;;;;;;;;;;;;20.73;57.41;99966.59;4393921;32;34102;-91
2022/09/01 09:10:36;;;;;;;;;;;;;;;20.69;59.03;99974.03;4391141;32;32762;-90
2022/09/01 09:13:29;;;;;;;;;;;;;;;20.69;61.41;99966.81;4399838;32;33572;-90
2022/09/01 09:16:02;;;;;;;;;;;;;;;20.99;59.11;99965.25;4377573;32;33313;-91
2022/09/01 09:18:52;;;;;;;;;;;;;;;20.96;58.92;99965.50;4381712;32;33147;-91
2022/09/01 09:21:27;;;;;;;;;;;;;;;21.10;58.62;99954.47;4386344;32;32635;-91
2022/09/01 09:23:58;;;;;;;;;;;;;;;20.97;59.52;99948.41;4381121;32;33349;-90
2022/09/01 09:26:26;;;;;;;;;;;;;;;21.02;60.94;99956.94;4393885;32;32896;-91
2022/09/01 09:28:53;;;;;;;;;;;;;;;21.08;58.75;99948.37;4394378;32;34858;-90
2022/09/01 09:31:24;;;;;;;;;;;;;;;21.15;57.48;99944.19;4393619;32;31842;-90
2022/09/01 09:33:52;;;;;;;;;;;;;;;21.27;57.79;99941.41;4393321;32;33141;-91
2022/09/01 09:36:21;;;;;;;;;;;;;;;21.14;59.67;99942.47;4376760;32;33105;-91
2022/09/01 09:39:06;;;;;;;;;;;;;;;21.12;60.99;99944.44;4375567;32;33272;-90
2022/09/01 09:41:33;;;;;;;;;;;;;;;21.35;61.15;99937.12;4394168;32;32915;-90
2022/09/01 09:44:21;;;;;;;;;;;;;;;21.10;58.37;99943.72;4396035;32;33366;-91
2022/09/01 09:46:49;;;;;;;;;;;;;;;21.59;55.46;99928.75;4392893;32;32609;-90
2022/09/01 09:49:25;;;;;;;;;;;;;;;21.67;57.14;99934.31;4400283;32;33297;-90
2022/09/01 09:52:03;;;;;;;;;;;;;;;21.51;59.17;99936.66;4383864;32;31953;-90
2022/09/01 09:54:32;;;;;;;;;;;;;;;21.73;58.28;99931.09;4397134;32;34341;-91
2022/09/01 09:57:02;;;;;;;;;;;;;;;21.58;59.92;99927.06;4374781;32;33463;-91
2022/09/01 09:59:36;;;;;;;;;;;;;;;21.77;59.94;99930.81;4388888;32;34394;-90
2022/09/01 10:02:36;;;;;;;;;;;;;;;21.99;59.73;99927.94;4373490;32;33303;-90
2022/09/01 10:05:20;;;;;;;;;;;;;;;22.06;56.21;99925.53;4402426;32;34194;-90
2022/09/01 10:07:47;;;;;;;;;;;;;;;22.09;58.46;99926.13;4374399;32;33108;-91
2022/09/01 10:10:26;;;;;;;;;;;;;;;22.22;54.71;99915.16;4373863;32;33562;-89
2022/09/01 10:12:54;;;;;;;;;;;;;;;22.32;51.05;99923.25;4380037;32;32987;-90
2022/09/01 10:15:24;;;;;;;;;;;;;;;22.27;55.17;99928.19;4398579;32;32901;-89
2022/09/01 10:17:52;;;;;;;;;;;;;;;22.25;52.72;99920.25;4387530;32;34956;-89
2022/09/01 10:20:45;;;;;;;;;;;;;;;22.66;52.15;99929.06;4394374;32;33966;-91
2022/09/01 10:23:14;;;;;;;;;;;;;;;22.78;48.95;99916.31;4403317;32;32795;-90
2022/09/01 10:25:43;;;;;;;;;;;;;;;22.77;48.06;99917.31;4344661;32;34922;-91
2022/09/01 10:28:12;;;;;;;;;;;;;;;22.84;49.54;99915.75;4381636;32;33997;-88
2022/09/01 10:30:47;;;;;;;;;;;;;;;22.92;49.41;99918.59;4389888;32;32592;-90
2022/09/01 10:33:15;;;;;;;;;;;;;;;22.85;49.56;99917.44;4408583;32;33502;-90
2022/09/01 10:35:49;;;;;;;;;;;;;;;23.09;48.60;99908.94;4396064;32;33676;-89
2022/09/01 10:38:20;;;;;;;;;;;;;;;23.02;47.29;99907.81;4404399;32;33780;-90
2022/09/01 10:41:05;;;;;;;;;;;;;;;22.81;46.61;99906.12;4380983;32;33254;-89
2022/09/01 10:43:40;;;;;;;;;;;;;;;22.90;50.10;99907.13;4391364;32;32157;-91
2022/09/01 10:46:27;;;;;;;;;;;;;;;23.12;44.89;99898.75;4385812;32;33164;-91
2022/09/01 10:49:41;;;;;;;;;;;;;;;22.98;45.14;99907.28;4379694;32;33022;-83
2022/09/01 10:52:31;;;;;;;;;;;;;;;22.86;43.14;99905.69;4399787;32;34150;-84
2022/09/01 10:54:59;;;;;;;;;;;;;;;22.92;45.57;99902.44;4401357;32;34811;-84
2022/09/01 10:57:41;;;;;;;;;;;;;;;22.92;45.37;99900.59;4399671;32;34823;-84
2022/09/01 11:00:18;;;;;;;;;;;;;;;23.29;43.94;99889.03;4385333;32;33303;-84
2022/09/01 11:03:12;;;;;;;;;;;;;;;23.54;45.75;99892.94;4379572;32;33094;-83
2022/09/01 11:06:00;;;;;;;;;;;;;;;23.80;43.65;99886.91;4400136;32;33475;-84
2022/09/01 11:08:47;;;;;;;;;;;;;;;23.83;42.23;99894.69;4373612;32;32892;-84
2022/09/01 11:11:26;;;;;;;;;;;;;;;23.41;46.92;99885.19;4390983;32;33626;-83
2022/09/01 11:13:57;;;;;;;;;;;;;;;23.59;43.83;99889.78;4373937;32;34252;-84
2022/09/01 11:16:28;;;;;;;;;;;;;;;24.05;41.71;99891.56;4388985;32;33437;-84
2022/09/01 11:19:27;;;;;;;;;;;;;;;24.05;40.75;99886.19;4399993;32;34207;-84
2022/09/01 11:22:09;;;;;;;;;;;;;;;24.22;39.51;99884.53;4402004;32;33463;-85
2022/09/01 11:24:37;;;;;;;;;;;;;;;24.05;37.59;99886.19;4387254;32;33833;-85
2022/09/01 11:27:05;;;;;;;;;;;;;;;23.88;39.98;99890.56;4402666;32;33560;-84
2022/09/01 11:29:51;;;;;;;;;;;;;;;24.24;37.82;99885.22;4399771;32;33005;-85
2022/09/01 11:32:23;;;;;;;;;;;;;;;24.14;36.44;99885.28;4402162;32;33633;-85
2022/09/01 11:34:50;;;;;;;;;;;;;;;24.06;39.48;99887.88;4396407;32;33760;-85
2022/09/01 11:37:19;;;;;;;;;;;;;;;24.37;38.72;99879.47;4383322;32;33188;-85
2022/09/01 11:39:48;;;;;;;;;;;;;;;24.76;36.09;99874.59;4374002;32;33004;-85
2022/09/01 11:42:22;;;;;;;;;;;;;;;24.44;35.49;99876.00;4396527;32;33508;-84
2022/09/01 11:44:51;;;;;;;;;;;;;;;24.53;36.38;99879.63;4398059;32;33934;-85
2022/09/01 11:47:21;;;;;;;;;;;;;;;24.65;36.01;99873.00;4386202;32;33318;-85
2022/09/01 11:49:56;;;;;;;;;;;;;;;24.53;35.49;99874.22;4355150;32;33050;-85
2022/09/01 11:52:25;;;;;;;;;;;;;;;24.60;33.91;99859.13;4381352;32;32844;-85
2022/09/01 11:54:53;;;;;;;;;;;;;;;24.35;35.81;99865.25;4386671;32;34378;-85
2022/09/01 11:57:25;;;;;;;;;;;;;;;24.63;32.97;99858.78;4386466;32;33243;-85
2022/09/01 11:59:53;;;;;;;;;;;;;;;24.03;34.33;99861.22;4397352;32;33831;-86
2022/09/01 12:02:23;;;;;;;;;;;;;;;24.44;36.99;99869.75;4373191;32;32562;-84
2022/09/01 12:04:54;;;;;;;;;;;;;;;24.89;34.55;99858.00;4378176;32;33653;-85
2022/09/01 12:07:34;;;;;;;;;;;;;;;25.18;35.39;99858.56;4391467;32;31831;-85
2022/09/01 12:10:12;;;;;;;;;;;;;;;25.37;33.99;99846.69;4386540;32;34203;-85
2022/09/01 12:12:44;;;;;;;;;;;;;;;25.01;33.21;99845.91;4394797;32;35024;-85
2022/09/01 12:15:22;;;;;;;;;;;;;;;25.32;34.43;99842.75;4399111;32;33618;-85
2022/09/01 12:17:49;;;;;;;;;;;;;;;25.03;34.65;99847.47;4380716;32;31876;-84
2022/09/01 12:20:18;;;;;;;;;;;;;;;25.21;35.19;99850.16;4394182;32;34923;-85
2022/09/01 12:22:46;;;;;;;;;;;;;;;25.43;39.82;99845.19;4395698;32;33472;-85
2022/09/01 12:25:19;;;;;;;;;;;;;;;25.60;33.99;99843.41;4398078;32;33288;-86
2022/09/01 12:27:47;;;;;;;;;;;;;;;25.46;32.63;99844.88;4375422;32;33271;-85
2022/09/01 12:30:15;;;;;;;;;;;;;;;25.27;33.66;99841.37;4371879;32;33520;-85
2022/09/01 12:32:43;;;;;;;;;;;;;;;25.35;34.61;99848.66;4380555;32;34045;-85
2022/09/01 12:35:18;;;;;;;;;;;;;;;25.60;33.37;99838.84;4372131;32;32926;-84
2022/09/01 12:37:46;;;;;;;;;;;;;;;25.81;37.41;99838.44;4399644;32;32404;-85
2022/09/01 12:40:24;;;;;;;;;;;;;;;26.00;32.84;99842.72;4402590;32;33343;-85
2022/09/01 12:42:52;;;;;;;;;;;;;;;25.75;33.66;99839.06;4400597;32;33254;-85
2022/09/01 12:45:58;;;;;;;;;;;;;;;25.78;33.34;99834.22;4398757;32;34294;-85
2022/09/01 12:48:44;;;;;;;;;;;;;;;26.14;31.26;99833.97;4370260;32;33963;-85
2022/09/01 12:51:17;;;;;;;;;;;;;;;25.68;32.11;99828.03;4399676;32;34379;-85
2022/09/01 12:53:52;;;;;;;;;;;;;;;25.68;32.75;99829.91;4375639;32;33303;-85
2022/09/01 12:56:23;;;;;;;;;;;;;;;25.78;33.13;99836.91;4400298;32;34191;-86
2022/09/01 12:58:55;;;;;;;;;;;;;;;25.79;32.08;99833.19;4383628;32;31844;-86
2022/09/01 13:01:25;;;;;;;;;;;;;;;25.27;32.12;99830.56;4386648;32;33544;-86
2022/09/01 13:04:06;;;;;;;;;;;;;;;25.21;32.45;99833.06;4376809;32;32805;-86
2022/09/01 13:06:34;;;;;;;;;;;;;;;25.60;32.34;99824.47;4398193;32;33246;-86
2022/09/01 13:09:01;;;;;;;;;;;;;;;25.33;33.11;99833.63;4385104;32;32359;-86
2022/09/01 13:11:29;;;;;;;;;;;;;;;25.31;35.91;99830.25;4371420;32;34350;-86
2022/09/01 13:14:17;;;;;;;;;;;;;;;25.59;34.04;99823.63;4384730;32;34271;-86
2022/09/01 13:16:45;;;;;;;;;;;;;;;25.65;33.84;99822.97;4396707;32;34167;-86
2022/09/01 13:19:12;;;;;;;;;;;;;;;26.07;34.28;99827.53;4395257;32;32313;-86
2022/09/01 13:21:52;;;;;;;;;;;;;;;26.08;31.82;99826.50;4387111;32;33800;-85
2022/09/01 13:24:20;;;;;;;;;;;;;;;26.17;30.73;99825.50;4397394;32;32654;-86
2022/09/01 13:26:56;;;;;;;;;;;;;;;26.34;31.04;99820.09;4387082;32;35507;-85